Chimbote, Tnte. FAP Jaime Montreuil Morales Airport (SPEO)

NameTnte. FAP Jaime Montreuil Morales Airport
CityChimbote
CountryPeru
ICAOSPEO
IATACHM
Altitude6 m
CoordinatesGoogle Map
Live Air TrafficLiveATC.net
METARSPEO 152000Z 18016KT 9000 FEW009 19/15 Q1012 RMK HZ PP000
2019-07-15 20:00:00 Wind: South (180°) 8.23 m/s - Visibility: 9000 m - Temperature: 19 °C - Dew point: 15 °C - Humidity: 77.7% - Pressure: 1012 hPa

Sorry, no flights used the airport in this database.